INFORMACIÓN METAR y TAF
METAR FOR LEDA
ADDS - METARS form results

(0248 UTC 22 February 2019)
Data provider http://aviationweather.gov/metar/data/
 
METAR text: LEDA 220230Z AUTO 23004KT 5000 BR NSC 05/04 Q1031
Conditions at: LEDA (LLEIDA-ALGUAIRE , ES) observed 0230 UTC 22 February 2019
Temperature: 5.0°C (41°F)
Dewpoint: 4.0°C (39°F) [RH = 93%]
Pressure (altimeter): 30.44 inches Hg (1031.0 mb)
Winds: from the SW (230 degrees) at 5 MPH (4 knots; 2.1 m/s)
Visibility: 3 miles ( 5 km)
Ceiling: at least 12,000 feet AGL
Clouds: sky clear below 12,000 feet AGL
Weather: BR  (mist)

METAR text: LEDA 220200Z AUTO 25004KT 6000 NCD 06/04 Q1031
Conditions at: LEDA (LLEIDA-ALGUAIRE , ES) observed 0200 UTC 22 February 2019
Temperature: 6.0°C (43°F)
Dewpoint: 4.0°C (39°F) [RH = 87%]
Pressure (altimeter): 30.44 inches Hg (1031.0 mb)
Winds: from the WSW (250 degrees) at 5 MPH (4 knots; 2.1 m/s)
Visibility: 4 miles ( 6 km)
Ceiling: at least 12,000 feet AGL
Clouds: sky clear below 12,000 feet AGL
Weather: no significant weather observed at this time

 MAPA DE AEROPUERTO

 INFORMACIÓN DE PISTA

 FRECUANCIAS DEL AEROPUERTO

 RADIO AYUDAS DEL AEROPUERTO



Powered by Virtual Airlines Manager [v2.6.2]